createdAt,value
2022-09-09T00:00:24.999Z,99569.13
2022-09-09T00:03:15.500Z,99585.97
2022-09-09T00:05:54.518Z,99562.28
2022-09-09T00:08:25.907Z,99578.09
2022-09-09T00:11:02.665Z,99644.63
2022-09-09T00:13:39.426Z,99582.34
2022-09-09T00:16:28.362Z,99567.34
2022-09-09T00:19:07.333Z,99573.28
2022-09-09T00:21:39.744Z,99571.06
2022-09-09T00:24:18.540Z,99585.44
2022-09-09T00:26:58.427Z,99580.97
2022-09-09T00:29:43.225Z,99589.69
2022-09-09T00:32:17.113Z,99595.22
2022-09-09T00:34:54.574Z,99574.19
2022-09-09T00:37:24.644Z,99588.72
2022-09-09T00:39:58.421Z,99540.69
2022-09-09T00:42:41.667Z,99585.50
2022-09-09T00:45:29.880Z,99596.69
2022-09-09T00:47:57.286Z,99590.72
2022-09-09T00:50:50.176Z,99597.56
2022-09-09T00:54:00.384Z,99576.91
2022-09-09T00:56:38.021Z,99595.31
2022-09-09T00:59:28.425Z,99591.94
2022-09-09T01:02:14.456Z,99587.00
2022-09-09T01:04:41.675Z,99597.22
2022-09-09T01:07:19.801Z,99584.03
2022-09-09T01:09:57.504Z,99595.13
2022-09-09T01:12:39.199Z,99596.84
2022-09-09T01:15:13.600Z,99613.41
2022-09-09T01:18:06.768Z,99607.00
2022-09-09T01:21:11.009Z,99634.06
2022-09-09T01:24:00.918Z,99604.00
2022-09-09T01:26:31.303Z,99611.16
2022-09-09T01:29:02.778Z,99608.06
2022-09-09T01:31:53.519Z,99610.41
2022-09-09T01:34:22.926Z,99603.22
2022-09-09T01:36:58.825Z,99609.56
2022-09-09T01:39:27.474Z,99622.81
2022-09-09T01:42:10.730Z,99618.94
2022-09-09T01:44:39.052Z,99615.22
2022-09-09T01:47:07.490Z,99618.88
2022-09-09T01:49:38.202Z,99611.00
2022-09-09T01:52:13.176Z,99641.44
2022-09-09T01:54:40.312Z,99613.69
2022-09-09T01:57:28.970Z,99621.97
2022-09-09T02:00:06.905Z,99635.94
2022-09-09T02:02:55.623Z,99648.63
2022-09-09T02:05:39.046Z,99646.09
2022-09-09T02:08:27.440Z,99620.22
2022-09-09T02:11:08.221Z,99635.59
2022-09-09T02:13:46.354Z,99637.47
2022-09-09T02:16:26.441Z,99652.41
2022-09-09T02:19:07.575Z,99638.91
2022-09-09T02:21:49.501Z,99627.66
2022-09-09T02:24:17.068Z,99654.00
2022-09-09T02:26:55.218Z,99638.97
2022-09-09T02:29:31.499Z,99642.00
2022-09-09T02:32:04.886Z,99646.16
2022-09-09T02:34:40.952Z,99638.38
2022-09-09T02:37:11.829Z,99657.47
2022-09-09T02:39:40.347Z,99663.88
2022-09-09T02:42:11.372Z,99672.16
2022-09-09T02:44:38.602Z,99665.88
2022-09-09T02:47:07.062Z,99662.09
2022-09-09T02:50:02.672Z,99673.63
2022-09-09T02:52:36.939Z,99669.56
2022-09-09T02:55:18.963Z,99679.06
2022-09-09T02:57:49.467Z,99666.94
2022-09-09T03:00:24.777Z,99660.13
2022-09-09T03:02:52.251Z,99667.75
2022-09-09T03:05:46.065Z,99681.66
2022-09-09T03:08:14.211Z,99697.13
2022-09-09T03:10:42.372Z,99701.19
2022-09-09T03:13:10.975Z,99702.25
2022-09-09T03:15:39.813Z,99706.84
2022-09-09T03:18:09.283Z,99686.53
2022-09-09T03:20:36.570Z,99704.22
2022-09-09T03:23:03.635Z,99704.19
2022-09-09T03:25:30.569Z,99707.22
2022-09-09T03:27:57.802Z,99705.41
2022-09-09T03:30:27.234Z,99698.94
2022-09-09T03:32:56.133Z,99728.66
2022-09-09T03:35:26.526Z,99703.91
2022-09-09T03:38:02.492Z,99693.72
2022-09-09T03:40:32.551Z,99715.13
2022-09-09T03:42:59.409Z,99710.66
2022-09-09T03:45:26.941Z,99715.91
2022-09-09T03:47:53.995Z,99712.88
2022-09-09T03:50:21.261Z,99712.03
2022-09-09T03:52:48.603Z,99688.34
2022-09-09T03:55:20.599Z,99706.41
2022-09-09T03:57:47.435Z,99726.34
2022-09-09T04:00:14.895Z,99712.69
2022-09-09T04:02:49.825Z,99710.41
2022-09-09T04:05:17.901Z,99711.13
2022-09-09T04:07:46.869Z,99729.38
2022-09-09T04:10:13.892Z,99703.78
2022-09-09T04:12:40.869Z,99728.13
2022-09-09T04:15:08.108Z,99716.03
2022-09-09T04:17:36.271Z,99707.94
2022-09-09T04:20:03.900Z,99737.44
2022-09-09T04:22:39.790Z,99733.72
2022-09-09T04:25:08.097Z,99743.50
2022-09-09T04:27:35.753Z,99763.22
2022-09-09T04:30:02.785Z,99722.47
2022-09-09T04:32:34.053Z,99753.38
2022-09-09T04:35:01.013Z,99756.31
2022-09-09T04:37:27.851Z,99739.69
2022-09-09T04:39:55.517Z,99739.34
2022-09-09T04:42:22.313Z,99747.06
2022-09-09T04:44:49.377Z,99752.00
2022-09-09T04:47:16.439Z,99752.06
2022-09-09T04:49:43.266Z,99757.69
2022-09-09T04:52:10.122Z,99767.38
2022-09-09T04:54:37.418Z,99734.41
2022-09-09T04:57:04.325Z,99718.22
2022-09-09T04:59:31.235Z,99772.00
2022-09-09T05:02:00.972Z,99755.16
2022-09-09T05:04:27.957Z,99792.81
2022-09-09T05:06:55.431Z,99773.97
2022-09-09T05:09:23.665Z,99787.44
2022-09-09T05:11:51.991Z,99780.72
2022-09-09T05:14:32.103Z,99763.47
2022-09-09T05:17:01.092Z,99774.78
2022-09-09T05:19:28.209Z,99790.25
2022-09-09T05:21:55.365Z,99796.72
2022-09-09T05:24:28.462Z,99805.25
2022-09-09T05:26:57.938Z,99794.03
2022-09-09T05:29:25.033Z,99794.81
2022-09-09T05:31:52.027Z,99793.28
2022-09-09T05:34:21.195Z,99802.38
2022-09-09T05:36:48.128Z,99794.06
2022-09-09T05:39:15.963Z,99791.03
2022-09-09T05:41:42.872Z,99814.38
2022-09-09T05:44:09.882Z,99790.59
2022-09-09T05:46:39.306Z,99800.06
2022-09-09T05:49:06.299Z,99819.25
2022-09-09T05:51:34.284Z,99798.94
2022-09-09T05:54:08.701Z,99817.38
2022-09-09T05:56:42.105Z,99814.78
2022-09-09T05:59:09.985Z,99826.84
2022-09-09T06:01:47.754Z,99814.78
2022-09-09T06:04:21.400Z,99826.09
2022-09-09T06:06:49.327Z,99821.94
2022-09-09T06:09:19.996Z,99809.13
2022-09-09T06:11:47.100Z,99827.84
2022-09-09T06:14:15.324Z,99831.22
2022-09-09T06:17:08.665Z,99807.09
2022-09-09T06:19:36.823Z,99818.00
2022-09-09T06:22:04.027Z,99813.50
2022-09-09T06:24:34.290Z,99815.91
2022-09-09T06:27:11.983Z,99843.44
2022-09-09T06:29:38.811Z,99813.94
2022-09-09T06:32:05.969Z,99839.56
2022-09-09T06:34:32.867Z,99842.94
2022-09-09T06:37:01.148Z,99844.72
2022-09-09T06:39:35.308Z,99859.94
2022-09-09T06:42:21.200Z,99831.72
2022-09-09T06:44:51.049Z,99836.75
2022-09-09T06:47:34.856Z,99842.28
2022-09-09T06:50:02.236Z,99828.16
2022-09-09T06:52:35.825Z,99834.19
2022-09-09T06:55:04.693Z,99856.09
2022-09-09T06:57:40.043Z,99846.31
2022-09-09T07:00:13.635Z,99891.56
2022-09-09T07:02:40.846Z,99854.72
2022-09-09T07:05:09.738Z,99861.88
2022-09-09T07:07:37.529Z,99872.28
2022-09-09T07:10:05.149Z,99850.88
2022-09-09T07:12:32.200Z,99865.16
2022-09-09T07:15:02.926Z,99858.38
2022-09-09T07:17:29.955Z,99869.53
2022-09-09T07:19:59.033Z,99854.06
2022-09-09T07:22:28.489Z,99879.78
2022-09-09T07:24:55.403Z,99887.72
2022-09-09T07:27:22.185Z,99887.00
2022-09-09T07:29:54.552Z,99873.97
2022-09-09T07:32:21.858Z,99875.34
2022-09-09T07:34:48.648Z,99895.41
2022-09-09T07:37:15.690Z,99898.44
2022-09-09T07:39:44.662Z,99918.06
2022-09-09T07:42:12.613Z,99899.94
2022-09-09T07:44:39.746Z,99905.59
2022-09-09T07:47:11.193Z,99889.34
2022-09-09T07:49:45.230Z,99887.78
2022-09-09T07:52:13.249Z,99893.28
2022-09-09T07:54:45.461Z,99904.84
2022-09-09T07:57:13.007Z,99895.75
2022-09-09T07:59:39.829Z,99900.09
2022-09-09T08:02:10.622Z,99888.25
2022-09-09T08:04:37.733Z,99905.41
2022-09-09T08:07:36.780Z,99912.69
2022-09-09T08:10:19.030Z,99913.69
2022-09-09T08:13:07.793Z,99894.81
2022-09-09T08:15:35.602Z,99902.13
2022-09-09T08:18:03.814Z,99926.34
2022-09-09T08:20:30.759Z,99899.94
2022-09-09T08:22:57.625Z,99896.56
2022-09-09T08:25:24.560Z,99885.56
2022-09-09T08:27:54.548Z,99907.06
2022-09-09T08:30:21.728Z,99908.78
2022-09-09T08:32:53.351Z,99905.66
2022-09-09T08:35:20.951Z,99914.84
2022-09-09T08:37:51.489Z,99886.97
2022-09-09T08:40:26.234Z,99883.44
2022-09-09T08:42:58.747Z,99899.88
2022-09-09T08:45:37.361Z,99895.25
2022-09-09T08:48:27.008Z,99888.28
2022-09-09T08:51:04.590Z,99896.50
2022-09-09T08:53:43.196Z,99902.63
2022-09-09T08:56:15.245Z,99891.59
2022-09-09T08:58:51.208Z,99921.47
2022-09-09T09:01:45.137Z,99906.75
2022-09-09T09:04:35.515Z,99919.16
2022-09-09T09:07:11.017Z,99899.91
2022-09-09T09:09:55.547Z,99921.06
2022-09-09T09:12:29.684Z,99935.41
2022-09-09T09:14:57.379Z,99942.94
2022-09-09T09:17:27.921Z,99946.28
2022-09-09T09:19:54.935Z,99929.28
2022-09-09T09:22:31.626Z,99942.75
2022-09-09T09:25:23.220Z,99941.19
2022-09-09T09:28:11.570Z,99942.00
2022-09-09T09:30:56.879Z,99946.41
2022-09-09T09:33:42.144Z,99949.72
2022-09-09T09:36:09.878Z,99943.31
2022-09-09T09:41:36.972Z,99953.09
2022-09-09T09:44:06.247Z,99943.03
2022-09-09T09:46:33.629Z,99945.59
2022-09-09T09:49:11.732Z,99951.06
2022-09-09T09:51:39.868Z,99943.56
2022-09-09T09:54:31.058Z,99949.59
2022-09-09T09:57:17.246Z,99955.28
2022-09-09T09:59:47.104Z,99954.53
2022-09-09T10:02:26.821Z,99936.84
2022-09-09T10:05:14.522Z,99958.78
2022-09-09T10:07:47.053Z,99956.47
2022-09-09T10:10:26.075Z,99987.38
2022-09-09T10:13:23.612Z,99969.66
2022-09-09T10:16:17.172Z,99975.00
2022-09-09T10:18:59.163Z,99980.63
2022-09-09T10:21:33.370Z,99996.47
2022-09-09T10:24:37.912Z,99984.41
2022-09-09T10:27:17.460Z,99961.59
2022-09-09T10:30:13.502Z,99977.53
2022-09-09T10:33:11.672Z,99986.44
2022-09-09T10:35:46.782Z,99980.00
2022-09-09T10:38:30.875Z,99980.81
2022-09-09T10:40:57.680Z,99971.44
2022-09-09T10:43:42.520Z,100005.41
2022-09-09T10:46:21.504Z,99978.69
2022-09-09T10:49:14.480Z,99995.81
2022-09-09T10:52:04.464Z,99992.50
2022-09-09T10:54:55.176Z,100001.94
2022-09-09T10:57:33.920Z,99988.03
2022-09-09T11:00:07.068Z,99976.75
2022-09-09T11:02:35.463Z,99984.38
2022-09-09T11:05:16.280Z,100000.22
2022-09-09T11:07:57.711Z,100017.97
2022-09-09T11:10:35.159Z,99978.69
2022-09-09T11:13:06.768Z,100022.09
2022-09-09T11:15:44.442Z,99997.56
2022-09-09T11:18:22.502Z,100010.00
2022-09-09T11:20:52.608Z,100010.66
2022-09-09T11:23:41.952Z,99996.19
2022-09-09T11:26:18.360Z,99993.19
2022-09-09T11:29:05.802Z,100007.19
2022-09-09T11:32:00.389Z,100011.44
2022-09-09T11:34:45.738Z,100008.44
2022-09-09T11:37:41.862Z,100002.41
2022-09-09T11:40:45.105Z,100000.50
2022-09-09T11:43:29.450Z,100018.72
2022-09-09T11:46:01.972Z,100019.06
2022-09-09T11:48:36.756Z,100001.94
2022-09-09T11:51:16.465Z,100025.34
2022-09-09T11:54:04.529Z,100009.25
2022-09-09T11:56:33.018Z,100014.56
2022-09-09T11:59:06.128Z,100012.97
2022-09-09T12:01:43.585Z,100032.69
2022-09-09T12:04:10.395Z,100007.41
2022-09-09T12:07:04.708Z,100006.56
2022-09-09T12:09:48.977Z,100003.66
2022-09-09T12:12:16.046Z,100011.69
2022-09-09T12:14:42.780Z,100032.69
2022-09-09T12:17:15.791Z,100027.38
2022-09-09T12:19:45.570Z,100027.78
2022-09-09T12:22:53.834Z,100012.59
2022-09-09T12:25:39.099Z,100005.09
2022-09-09T12:28:16.391Z,100004.34
2022-09-09T12:30:59.989Z,100015.97
2022-09-09T12:33:36.150Z,100020.53
2022-09-09T12:36:06.990Z,100025.47
2022-09-09T12:38:44.792Z,100021.97
2022-09-09T12:41:37.760Z,100009.50
2022-09-09T12:44:06.776Z,100027.59
2022-09-09T12:46:39.160Z,99996.88
2022-09-09T12:49:06.179Z,99997.41
2022-09-09T12:51:34.425Z,100026.41
2022-09-09T12:54:01.916Z,100007.44
2022-09-09T12:56:32.510Z,100017.44
2022-09-09T12:59:00.696Z,100011.94
2022-09-09T13:01:30.548Z,100024.06
2022-09-09T13:03:57.972Z,100036.41
2022-09-09T13:06:30.605Z,100043.84
2022-09-09T13:09:00.530Z,100014.31
2022-09-09T13:11:42.218Z,100028.59
2022-09-09T13:14:25.130Z,100020.31
2022-09-09T13:17:18.392Z,100013.56
2022-09-09T13:19:46.396Z,100020.03
2022-09-09T13:22:31.326Z,100015.53
2022-09-09T13:25:23.503Z,100028.84
2022-09-09T13:28:04.672Z,100008.22
2022-09-09T13:30:38.915Z,100027.59
2022-09-09T13:33:14.883Z,100036.19
2022-09-09T13:35:56.106Z,100028.63
2022-09-09T13:38:27.709Z,100045.41
2022-09-09T13:41:04.596Z,100038.88
2022-09-09T13:43:52.866Z,100057.84
2022-09-09T13:46:38.218Z,100058.34
2022-09-09T13:49:08.036Z,100059.84
2022-09-09T13:51:38.271Z,100055.66
2022-09-09T13:54:06.637Z,100029.22
2022-09-09T13:56:35.106Z,100039.38
2022-09-09T13:59:26.259Z,100048.03
2022-09-09T14:01:57.767Z,100064.28
2022-09-09T14:04:24.576Z,100070.78
2022-09-09T14:06:51.936Z,100086.28
2022-09-09T14:09:45.306Z,100058.28
2022-09-09T14:12:13.019Z,100054.94
2022-09-09T14:15:02.951Z,100086.28
2022-09-09T14:17:29.979Z,100049.22
2022-09-09T14:19:59.404Z,100053.75
2022-09-09T14:22:26.692Z,100062.00
2022-09-09T14:24:53.636Z,100036.38
2022-09-09T14:27:20.575Z,100061.94
2022-09-09T14:29:47.587Z,100054.44
2022-09-09T14:32:14.594Z,100077.81
2022-09-09T14:34:58.830Z,100045.81
2022-09-09T14:37:28.483Z,100071.41
2022-09-09T14:39:55.821Z,100074.47
2022-09-09T14:42:22.965Z,100061.56
2022-09-09T14:44:49.978Z,100069.88
2022-09-09T14:47:17.124Z,100065.44
2022-09-09T14:49:46.590Z,100068.53
2022-09-09T14:52:14.321Z,100073.47
2022-09-09T14:54:41.105Z,100067.03
2022-09-09T14:57:08.103Z,100046.66
2022-09-09T14:59:34.915Z,100059.09
2022-09-09T15:02:01.880Z,100053.81
2022-09-09T15:04:28.967Z,100056.09
2022-09-09T15:06:55.850Z,100044.41
2022-09-09T15:09:23.703Z,100059.88
2022-09-09T15:12:27.770Z,100084.00
2022-09-09T15:15:00.551Z,100088.53
2022-09-09T15:17:37.603Z,100080.22
2022-09-09T15:20:05.506Z,100094.56
2022-09-09T15:23:22.771Z,100074.97
2022-09-09T15:25:54.886Z,100082.88
2022-09-09T15:28:22.927Z,100076.84
2022-09-09T15:30:51.842Z,100091.16
2022-09-09T15:33:24.082Z,100094.97
2022-09-09T15:35:50.978Z,100100.22
2022-09-09T15:38:17.861Z,100069.66
2022-09-09T15:40:45.235Z,100082.44
2022-09-09T15:43:39.424Z,100121.69
2022-09-09T15:46:25.407Z,100124.72
2022-09-09T15:48:54.438Z,100087.69
2022-09-09T15:51:42.278Z,100100.47
2022-09-09T15:54:34.489Z,100102.03
2022-09-09T15:57:24.693Z,100104.25
2022-09-09T16:00:06.474Z,100112.56
2022-09-09T16:02:42.073Z,100107.25
2022-09-09T16:05:13.004Z,100144.59
2022-09-09T16:07:53.586Z,100140.78
2022-09-09T16:10:20.672Z,100104.19
2022-09-09T16:12:50.317Z,100111.34
2022-09-09T16:15:21.293Z,100127.97
2022-09-09T16:17:58.291Z,100149.00
2022-09-09T16:20:25.785Z,100119.19
2022-09-09T16:22:52.639Z,100129.94
2022-09-09T16:25:19.533Z,100151.22
2022-09-09T16:27:54.009Z,100160.19
2022-09-09T16:30:22.032Z,100135.78
2022-09-09T16:33:13.594Z,100159.50
2022-09-09T16:35:40.602Z,100150.69
2022-09-09T16:38:07.968Z,100160.56
2022-09-09T16:40:39.203Z,100180.25
2022-09-09T16:43:06.876Z,100174.88
2022-09-09T16:45:54.455Z,100192.34
2022-09-09T16:48:21.555Z,100166.63
2022-09-09T16:51:12.989Z,100185.50
2022-09-09T16:53:40.014Z,100174.19
2022-09-09T16:56:12.041Z,100181.41
2022-09-09T16:58:39.132Z,100175.38
2022-09-09T17:01:09.051Z,100180.25
2022-09-09T17:03:35.933Z,100196.13
2022-09-09T17:06:02.685Z,100210.31
2022-09-09T17:08:30.815Z,100211.16
2022-09-09T17:11:33.165Z,100214.94
2022-09-09T17:14:00.222Z,100212.41
2022-09-09T17:16:30.770Z,100229.00
2022-09-09T17:18:58.796Z,100232.63
2022-09-09T17:21:27.569Z,100242.31
2022-09-09T17:23:55.870Z,100214.09
2022-09-09T17:26:25.433Z,100221.19
2022-09-09T17:28:56.117Z,100232.38
2022-09-09T17:31:33.978Z,100238.84
2022-09-09T17:34:01.480Z,100244.44
2022-09-09T17:36:31.730Z,100226.63
2022-09-09T17:38:59.847Z,100258.22
2022-09-09T17:41:33.108Z,100257.78
2022-09-09T17:44:01.153Z,100256.56
2022-09-09T17:46:40.302Z,100249.09
2022-09-09T17:49:16.499Z,100251.28
2022-09-09T17:51:44.915Z,100265.59
2022-09-09T17:54:15.245Z,100269.75
2022-09-09T17:56:43.094Z,100261.81
2022-09-09T17:59:18.480Z,100276.94
2022-09-09T18:01:48.225Z,100261.03
2022-09-09T18:04:21.319Z,100255.78
2022-09-09T18:06:52.942Z,100271.88
2022-09-09T18:09:28.249Z,100258.97
2022-09-09T18:11:58.184Z,100260.47
2022-09-09T18:14:30.599Z,100262.19
2022-09-09T18:17:02.298Z,100274.84
2022-09-09T18:19:32.977Z,100281.13
2022-09-09T18:22:02.593Z,100279.22
2022-09-09T18:24:30.873Z,100271.28
2022-09-09T18:26:57.698Z,100268.34
2022-09-09T18:29:27.415Z,100267.53
2022-09-09T18:31:55.111Z,100270.09
2022-09-09T18:34:23.350Z,100291.19
2022-09-09T18:36:52.516Z,100276.84
2022-09-09T18:39:21.033Z,100266.00
2022-09-09T18:41:50.514Z,100288.34
2022-09-09T18:44:21.372Z,100278.28
2022-09-09T18:46:49.192Z,100271.34
2022-09-09T18:49:19.148Z,100296.53
2022-09-09T18:51:46.675Z,100303.00
2022-09-09T18:54:17.703Z,100294.91
2022-09-09T18:56:44.915Z,100293.50
2022-09-09T18:59:15.243Z,100307.13
2022-09-09T19:01:42.786Z,100306.13
2022-09-09T19:04:10.067Z,100292.47
2022-09-09T19:06:43.274Z,100284.22
2022-09-09T19:09:11.974Z,100312.50
2022-09-09T19:11:39.229Z,100302.44
2022-09-09T19:14:08.583Z,100307.44
2022-09-09T19:16:36.228Z,100300.06
2022-09-09T19:19:08.799Z,100290.97
2022-09-09T19:21:38.175Z,100314.78
2022-09-09T19:24:17.448Z,100315.38
2022-09-09T19:26:47.644Z,100300.72
2022-09-09T19:29:17.229Z,100290.00
2022-09-09T19:31:55.361Z,100294.44
2022-09-09T19:34:40.919Z,100317.06
2022-09-09T19:37:07.816Z,100333.03
2022-09-09T19:39:34.767Z,100317.41
2022-09-09T19:42:02.091Z,100300.19
2022-09-09T19:44:31.585Z,100309.22
2022-09-09T19:46:58.400Z,100313.56
2022-09-09T19:49:25.208Z,100277.81
2022-09-09T19:51:52.176Z,100309.88
2022-09-09T19:54:18.979Z,100317.25
2022-09-09T19:56:45.820Z,100312.59
2022-09-09T19:59:15.943Z,100311.41
2022-09-09T20:01:44.944Z,100298.97
2022-09-09T20:04:12.912Z,100310.16
2022-09-09T20:06:42.150Z,100278.31
2022-09-09T20:09:12.986Z,100301.13
2022-09-09T20:11:40.431Z,100287.41
2022-09-09T20:14:07.814Z,100303.28
2022-09-09T20:16:35.119Z,100311.03
2022-09-09T20:19:07.330Z,100286.56
2022-09-09T20:21:46.710Z,100301.38
2022-09-09T20:24:16.729Z,100318.19
2022-09-09T20:26:43.584Z,100309.28
2022-09-09T20:29:16.488Z,100320.63
2022-09-09T20:31:44.367Z,100304.94
2022-09-09T20:34:14.151Z,100325.00
2022-09-09T20:36:42.134Z,100327.47
2022-09-09T20:39:15.223Z,100328.28
2022-09-09T20:41:45.174Z,100302.59
2022-09-09T20:44:18.105Z,100310.94
2022-09-09T20:46:47.553Z,100331.59
2022-09-09T20:49:15.369Z,100332.28
2022-09-09T20:51:42.761Z,100355.78
2022-09-09T20:54:16.086Z,100333.06
2022-09-09T20:56:45.222Z,100342.09
2022-09-09T20:59:23.055Z,100332.84
2022-09-09T21:01:50.750Z,100327.28
2022-09-09T21:04:19.593Z,100252.16
2022-09-09T21:06:47.449Z,100324.16
2022-09-09T21:09:14.603Z,100333.91
2022-09-09T21:11:41.730Z,100337.97
2022-09-09T21:14:08.659Z,100328.44
2022-09-09T21:16:35.569Z,100334.16
2022-09-09T21:19:02.352Z,100328.97
2022-09-09T21:21:39.571Z,100328.47
2022-09-09T21:24:06.560Z,100342.09
2022-09-09T21:26:33.488Z,100335.41
2022-09-09T21:29:00.477Z,100347.63
2022-09-09T21:31:28.481Z,100342.16
2022-09-09T21:33:58.715Z,100325.31
2022-09-09T21:36:26.179Z,100334.78
2022-09-09T21:38:53.019Z,100334.47
2022-09-09T21:41:19.881Z,100314.72
2022-09-09T21:43:52.694Z,100335.34
2022-09-09T21:46:20.915Z,100332.72
2022-09-09T21:48:47.701Z,100324.28
2022-09-09T21:51:16.962Z,100321.91
2022-09-09T21:53:44.498Z,100324.47
2022-09-09T21:56:14.283Z,100340.25
2022-09-09T21:58:41.614Z,100329.50
2022-09-09T22:01:16.834Z,100334.91
2022-09-09T22:03:44.925Z,100345.13
2022-09-09T22:06:15.170Z,100335.22
2022-09-09T22:08:42.640Z,100349.38
2022-09-09T22:11:26.356Z,100324.09
2022-09-09T22:13:53.301Z,100340.66
2022-09-09T22:16:22.086Z,100337.47
2022-09-09T22:18:58.927Z,100333.91
2022-09-09T22:21:44.282Z,100352.34
2022-09-09T22:24:12.084Z,100336.00
2022-09-09T22:26:39.246Z,100339.72
2022-09-09T22:29:07.047Z,100327.03
2022-09-09T22:31:34.893Z,100329.41
2022-09-09T22:34:02.536Z,100325.13
2022-09-09T22:36:29.528Z,100330.66
2022-09-09T22:38:56.406Z,100345.34
2022-09-09T22:41:23.673Z,100350.59
2022-09-09T22:43:50.910Z,100339.59
2022-09-09T22:46:17.852Z,100348.47
2022-09-09T22:48:44.830Z,100323.28
2022-09-09T22:51:14.207Z,100345.34
2022-09-09T22:53:42.544Z,100343.66
2022-09-09T22:56:17.252Z,100332.06
2022-09-09T22:58:45.137Z,100344.50
2022-09-09T23:01:17.673Z,100335.28
2022-09-09T23:03:45.338Z,100351.03
2022-09-09T23:06:13.800Z,100350.06
2022-09-09T23:08:40.632Z,100345.19
2022-09-09T23:11:10.042Z,100348.47
2022-09-09T23:13:41.909Z,100334.69
2022-09-09T23:16:09.673Z,100333.34
2022-09-09T23:18:36.706Z,100342.97
2022-09-09T23:21:03.610Z,100360.28
2022-09-09T23:23:30.466Z,100350.66
2022-09-09T23:26:00.786Z,100377.53
2022-09-09T23:28:29.407Z,100373.88
2022-09-09T23:30:56.244Z,100378.66
2022-09-09T23:33:23.337Z,100380.97
2022-09-09T23:36:01.111Z,100384.53
2022-09-09T23:38:31.073Z,100370.56
2022-09-09T23:41:03.802Z,100400.34
2022-09-09T23:43:30.876Z,100366.31
2022-09-09T23:45:57.816Z,100379.97
2022-09-09T23:48:24.742Z,100377.59
2022-09-09T23:50:51.592Z,100362.28
2022-09-09T23:53:18.627Z,100391.22
2022-09-09T23:55:45.379Z,100374.63
2022-09-09T23:58:12.479Z,100385.00
